Time;durP1;ratioP1;P1;durP2;ratioP2;P2;SDS_P1;SDS_P2;PMS_P1;PMS_P2;Temp;Humidity;BMP_temperature;BMP_pressure;BME280_temperature;BME280_humidity;BME280_pressure;Samples;Min_cycle;Max_cycle;Signal;HPM_P1;HPM_P2
2023/09/16 00:01:25;;;;;;;1.63;0.90;;;18.90;94.60;;;17.80;82.24;100494.06;9904141;29;96610;-88
2023/09/16 00:06:29;;;;;;;2.20;0.95;;;19.00;94.60;;;17.78;82.18;100498.81;9907171;29;96369;-88
2023/09/16 00:11:32;;;;;;;1.92;0.82;;;19.00;94.60;;;17.76;82.02;100492.84;9899282;29;96666;-89
2023/09/16 00:16:36;;;;;;;1.42;0.70;;;18.90;94.60;;;17.73;82.22;100499.44;9912417;29;96722;-89
2023/09/16 00:21:41;;;;;;;2.58;0.95;;;18.90;94.60;;;17.70;82.13;100499.00;9921303;29;96574;-89
2023/09/16 00:26:45;;;;;;;1.35;0.80;;;18.90;94.70;;;17.65;82.35;100499.63;9916745;29;96557;-89
2023/09/16 00:31:49;;;;;;;1.40;0.75;;;18.80;94.70;;;17.60;82.32;100502.91;9904060;29;98359;-89
2023/09/16 00:36:53;;;;;;;1.40;0.90;;;18.80;94.70;;;17.63;82.06;100504.34;9937460;29;96690;-88
2023/09/16 00:41:57;;;;;;;2.03;0.93;;;18.80;94.70;;;17.63;81.84;100504.34;9910219;29;96593;-88
2023/09/16 00:47:01;;;;;;;1.75;0.80;;;18.80;94.60;;;17.64;81.31;100524.84;9902902;29;96875;-89
2023/09/16 00:52:05;;;;;;;1.33;0.60;;;18.80;94.60;;;17.66;81.04;100512.84;9923273;29;96895;-90
2023/09/16 00:57:14;;;;;;;1.73;0.70;;;18.90;94.50;;;17.65;81.16;100519.25;9888776;29;96775;-89
2023/09/16 01:02:19;;;;;;;1.73;0.77;;;18.80;94.50;;;17.65;80.96;100521.94;9912312;29;96899;-88
2023/09/16 01:07:24;;;;;;;2.03;1.05;;;18.80;94.40;;;17.62;80.60;100516.97;9857046;29;96549;-88
2023/09/16 01:12:28;;;;;;;1.50;0.80;;;18.80;94.40;;;17.59;80.59;100519.25;9880578;29;97445;-88
2023/09/16 01:17:46;;;;;;;1.80;0.70;;;18.70;94.50;;;17.54;81.41;100513.66;9901867;29;97745;-89
2023/09/16 01:22:51;;;;;;;1.20;0.70;;;18.70;94.60;;;17.47;81.65;100507.47;9908503;29;96580;-90
2023/09/16 01:27:55;;;;;;;1.73;0.90;;;18.70;94.70;;;17.41;82.39;100502.91;9902927;29;96636;-88
2023/09/16 01:33:25;;;;;;;2.58;1.00;;;18.60;94.90;;;17.38;82.77;100509.50;9906329;29;96770;-87
2023/09/16 01:38:32;;;;;;;1.73;1.00;;;18.60;95.00;;;17.36;83.25;100517.78;9882778;29;96862;-88
2023/09/16 01:43:37;;;;;;;1.58;0.80;;;18.50;95.10;;;17.31;83.22;100509.50;9906321;29;97547;-89
2023/09/16 01:48:42;;;;;;;2.85;1.10;;;18.50;95.20;;;17.30;83.78;100518.59;9921199;29;96733;-88
2023/09/16 01:53:54;;;;;;;1.77;0.90;;;18.50;95.50;;;17.34;83.80;100522.53;9872021;29;96546;-88
2023/09/16 01:58:58;;;;;;;1.75;1.05;;;18.50;95.40;;;17.35;84.15;100526.88;9892578;29;97586;-88
2023/09/16 02:04:02;;;;;;;3.95;1.27;;;18.50;95.40;;;17.37;84.42;100524.78;9886986;29;98203;-89
2023/09/16 02:09:05;;;;;;;1.98;1.25;;;18.60;95.50;;;17.36;84.62;100522.31;9908067;29;96521;-89
2023/09/16 02:14:12;;;;;;;1.83;1.08;;;18.60;95.60;;;17.38;84.87;100521.06;9885674;29;98608;-88
2023/09/16 02:19:16;;;;;;;1.25;0.80;;;18.60;95.60;;;17.37;84.95;100518.59;9944172;29;98523;-88
2023/09/16 02:24:20;;;;;;;1.95;1.05;;;18.60;95.70;;;17.42;85.04;100526.88;9901914;29;96619;-88
2023/09/16 02:29:24;;;;;;;1.95;1.25;;;18.60;95.60;;;17.44;84.77;100527.50;9881220;29;97336;-88
2023/09/16 02:34:28;;;;;;;2.95;1.00;;;18.70;95.60;;;17.45;84.51;100512.19;9856923;29;96626;-88
2023/09/16 02:39:32;;;;;;;2.10;1.08;;;18.70;95.60;;;17.47;84.74;100508.28;9849684;29;96630;-87
2023/09/16 02:44:35;;;;;;;2.90;0.90;;;18.70;95.70;;;17.47;85.05;100507.47;9861909;29;97753;-88
2023/09/16 02:49:39;;;;;;;1.40;0.80;;;18.70;95.80;;;17.48;85.29;100514.50;9845835;29;97228;-88
2023/09/16 02:54:42;;;;;;;2.92;0.80;;;18.70;95.80;;;17.44;85.72;100507.84;9894901;29;96484;-88
2023/09/16 02:59:48;;;;;;;1.27;0.90;;;18.70;95.90;;;17.41;86.19;100509.09;9889118;29;96620;-88
2023/09/16 03:04:52;;;;;;;2.90;1.00;;;18.60;96.10;;;17.36;86.51;100503.53;9848089;29;96638;-88
2023/09/16 03:09:55;;;;;;;1.35;0.80;;;18.60;96.20;;;17.33;86.26;100496.72;9864060;29;97383;-88
2023/09/16 03:14:59;;;;;;;2.25;1.10;;;18.50;96.30;;;17.31;86.19;100506.81;9877144;29;97198;-88
2023/09/16 03:20:03;;;;;;;2.80;1.25;;;18.50;96.30;;;17.27;86.35;100508.28;9846171;29;97412;-87
2023/09/16 03:25:07;;;;;;;1.30;0.98;;;18.50;96.40;;;17.24;86.38;100508.66;9849313;29;96444;-87
2023/09/16 03:30:15;;;;;;;1.67;0.65;;;18.50;96.50;;;17.26;87.26;100517.34;9864512;29;98469;-87
2023/09/16 03:35:21;;;;;;;1.38;0.93;;;18.50;96.50;;;17.24;87.35;100519.41;9851377;29;96680;-87
2023/09/16 03:40:25;;;;;;;1.63;0.93;;;18.50;96.60;;;17.19;87.45;100515.69;9924840;29;96789;-86
2023/09/16 03:45:28;;;;;;;2.13;1.08;;;18.40;96.70;;;17.18;87.47;100514.84;9914818;29;96673;-88
2023/09/16 03:50:32;;;;;;;1.13;0.63;;;18.40;96.70;;;17.16;87.17;100514.25;9915756;29;98478;-87
2023/09/16 03:55:36;;;;;;;1.20;0.70;;;18.40;96.80;;;17.13;87.36;100515.44;9902698;29;96819;-88
2023/09/16 04:00:40;;;;;;;1.17;0.60;;;18.30;97.10;;;17.07;87.46;100512.75;9912545;29;96968;-88
2023/09/16 04:05:43;;;;;;;4.28;1.25;;;18.30;97.00;;;17.05;87.99;100510.28;9904432;29;96649;-88
2023/09/16 04:10:47;;;;;;;1.23;0.75;;;18.20;97.00;;;17.00;88.20;100503.88;9912363;29;98752;-88
2023/09/16 04:15:51;;;;;;;2.05;1.20;;;18.20;97.10;;;17.00;88.47;100506.53;9911358;29;96581;-88
2023/09/16 04:20:55;;;;;;;2.08;0.80;;;18.20;97.20;;;16.97;88.41;100510.47;9898566;29;96634;-88
2023/09/16 04:26:03;;;;;;;2.00;0.77;;;18.20;97.20;;;16.94;88.19;100507.34;9887592;29;96716;-88
2023/09/16 04:31:08;;;;;;;2.83;0.80;;;18.10;97.20;;;16.88;88.09;100519.72;9881995;29;98411;-89
2023/09/16 04:36:12;;;;;;;1.30;0.80;;;18.10;97.30;;;16.77;88.10;100518.44;9917421;29;96730;-89
2023/09/16 04:41:16;;;;;;;3.03;1.58;;;18.00;97.30;;;16.68;88.37;100530.34;9888948;29;96745;-89
2023/09/16 04:46:20;;;;;;;2.30;1.15;;;17.90;97.40;;;16.62;88.82;100531.16;9898560;29;97241;-88
2023/09/16 04:51:24;;;;;;;2.22;1.17;;;17.90;97.60;;;16.59;89.32;100542.25;9900362;29;96659;-88
2023/09/16 04:56:27;;;;;;;1.77;1.10;;;17.90;97.70;;;16.55;90.06;100530.28;9883035;29;96623;-87
2023/09/16 05:01:32;;;;;;;2.05;1.13;;;17.80;97.90;;;16.50;90.06;100522.00;9902803;29;96841;-87
2023/09/16 05:06:36;;;;;;;1.63;1.00;;;17.80;98.00;;;16.49;90.47;100523.00;9899499;29;96624;-93
2023/09/16 05:11:39;;;;;;;4.65;1.00;;;17.70;98.20;;;16.43;90.42;100526.50;9897205;29;97971;-84
2023/09/16 05:16:43;;;;;;;2.33;1.20;;;17.70;98.30;;;16.42;91.15;100536.38;9890710;29;98530;-85
2023/09/16 05:21:46;;;;;;;2.42;1.00;;;17.60;98.40;;;16.43;91.02;100534.53;9921892;29;97420;-85
2023/09/16 05:26:50;;;;;;;1.02;0.70;;;17.70;98.50;;;16.46;91.04;100542.19;9934381;29;97294;-85
2023/09/16 05:31:53;;;;;;;1.20;0.88;;;17.70;98.50;;;16.52;92.00;100544.09;9920648;29;96638;-85
2023/09/16 05:36:57;;;;;;;1.40;0.90;;;17.80;98.70;;;16.62;91.89;100546.44;9919494;29;96610;-85
2023/09/16 05:42:01;;;;;;;2.90;0.95;;;17.90;98.80;;;16.71;91.83;100542.56;9879645;29;96603;-84
2023/09/16 05:47:05;;;;;;;1.70;1.10;;;18.00;98.80;;;16.81;91.83;100543.84;9844549;29;96591;-85
2023/09/16 05:52:10;;;;;;;1.35;0.75;;;18.00;98.80;;;16.89;91.12;100545.53;9888247;29;97096;-85
2023/09/16 05:57:13;;;;;;;1.23;0.70;;;18.10;98.70;;;16.96;89.39;100551.75;9935852;29;97748;-85
2023/09/16 06:02:17;;;;;;;1.30;0.80;;;18.20;98.50;;;17.04;89.11;100540.84;9920088;29;96621;-86
2023/09/16 06:07:25;;;;;;;1.23;0.82;;;18.30;98.40;;;17.22;88.05;100548.34;9918733;29;96648;-86
2023/09/16 06:12:29;;;;;;;1.40;0.90;;;18.40;98.20;;;17.41;87.16;100552.09;9860413;29;96980;-85
2023/09/16 06:17:33;;;;;;;1.63;0.80;;;18.60;98.00;;;17.57;85.99;100551.72;9876688;29;96801;-86
2023/09/16 06:22:37;;;;;;;1.30;0.73;;;18.80;97.70;;;17.71;84.68;100552.53;9928786;29;97106;-85
2023/09/16 06:27:40;;;;;;;2.55;0.90;;;18.90;97.30;;;17.84;83.22;100547.19;9933748;29;96584;-86
2023/09/16 06:32:44;;;;;;;1.75;0.95;;;19.10;97.00;;;17.98;82.74;100531.88;9914193;29;96788;-86
2023/09/16 06:37:49;;;;;;;1.58;0.77;;;19.20;96.80;;;18.09;81.12;100528.56;9914238;29;98497;-86
2023/09/16 06:42:53;;;;;;;1.27;0.70;;;19.30;96.50;;;18.25;80.37;100530.00;9904505;29;97593;-86
2023/09/16 06:47:57;;;;;;;1.40;0.70;;;19.50;96.30;;;18.42;79.39;100528.50;9922162;29;97916;-85
2023/09/16 06:53:01;;;;;;;1.02;0.55;;;19.70;96.00;;;18.57;77.62;100525.56;9890989;29;96778;-86
2023/09/16 06:58:06;;;;;;;2.42;0.80;;;19.80;95.60;;;18.66;76.89;100535.06;9910769;29;96770;-87
2023/09/16 07:03:10;;;;;;;1.65;0.90;;;19.90;95.20;;;18.80;76.22;100541.25;9883531;29;96517;-86
2023/09/16 07:08:18;;;;;;;1.60;0.90;;;20.00;94.90;;;18.92;75.51;100544.91;9917673;29;96571;-86
2023/09/16 07:13:22;;;;;;;1.17;0.73;;;20.20;94.70;;;19.07;74.52;100543.81;9905198;29;96670;-87
2023/09/16 07:18:25;;;;;;;2.72;0.77;;;20.40;94.30;;;19.27;73.34;100552.63;9901050;29;96605;-86
2023/09/16 07:23:29;;;;;;;1.90;0.98;;;20.50;93.80;;;19.39;71.39;100558.16;9919636;29;96623;-86
2023/09/16 07:28:33;;;;;;;1.00;0.73;;;20.70;93.40;;;19.45;70.25;100554.59;9919643;29;97371;-86
2023/09/16 07:33:36;;;;;;;1.05;0.57;;;20.80;92.60;;;19.50;70.47;100547.50;9923751;29;96756;-87
2023/09/16 07:38:44;;;;;;;1.52;0.70;;;20.80;92.60;;;19.65;70.36;100549.06;9919816;29;96997;-86
2023/09/16 07:43:48;;;;;;;1.17;0.60;;;20.90;92.50;;;19.82;69.14;100544.78;9936864;29;97694;-87
2023/09/16 07:48:51;;;;;;;2.70;0.60;;;21.10;92.10;;;20.00;68.08;100535.94;9938869;29;96750;-88
2023/09/16 07:53:55;;;;;;;0.88;0.52;;;21.20;91.60;;;20.11;67.23;100526.28;9918217;29;96951;-87
2023/09/16 07:58:59;;;;;;;3.88;0.80;;;21.30;91.60;;;20.20;66.15;100530.34;9903115;29;96525;-87
2023/09/16 08:04:03;;;;;;;4.22;1.00;;;21.40;91.20;;;20.36;66.02;100524.38;9939003;29;98461;-86
2023/09/16 08:09:06;;;;;;;1.20;0.65;;;21.60;91.00;;;20.56;64.25;100522.28;9926118;29;96816;-87
2023/09/16 08:14:10;;;;;;;2.40;0.63;;;21.90;90.40;;;20.78;63.46;100529.94;9903838;29;96507;-86
2023/09/16 08:19:16;;;;;;;1.05;0.60;;;22.10;90.10;;;20.87;63.63;100520.47;9848760;29;96606;-87
2023/09/16 08:24:22;;;;;;;2.28;0.80;;;22.20;89.80;;;20.83;63.43;100520.09;9884077;29;98317;-86
2023/09/16 08:29:26;;;;;;;1.05;0.70;;;22.20;89.30;;;20.85;63.86;100523.38;9920759;29;96535;-86
2023/09/16 08:34:30;;;;;;;1.42;0.85;;;22.20;89.30;;;20.91;63.77;100535.16;9910813;29;96774;-87
2023/09/16 08:39:33;;;;;;;0.93;0.50;;;22.20;89.80;;;20.92;63.09;100523.31;9935053;29;97667;-86
2023/09/16 08:44:42;;;;;;;1.27;0.70;;;22.30;88.90;;;20.96;62.60;100523.69;9920029;29;97890;-87
2023/09/16 08:49:53;;;;;;;1.60;0.80;;;22.30;88.00;;;20.97;63.04;100526.16;9931059;29;96741;-87
2023/09/16 08:54:58;;;;;;;1.85;0.70;;;22.30;88.00;;;21.06;64.08;100526.66;9922194;29;96863;-88
2023/09/16 09:00:03;;;;;;;1.40;0.85;;;22.30;88.40;;;21.07;63.04;100526.44;9934338;29;96507;-88
2023/09/16 09:05:08;;;;;;;3.08;0.93;;;22.40;87.80;;;21.14;63.04;100528.22;9922066;29;96562;-88
2023/09/16 09:10:12;;;;;;;2.72;0.90;;;22.50;87.90;;;21.25;63.63;100530.16;9896816;29;97450;-88
2023/09/16 09:15:16;;;;;;;1.52;0.93;;;22.50;87.80;;;21.28;62.97;100532.38;9904040;29;96628;-87
2023/09/16 09:20:26;;;;;;;3.67;1.00;;;22.60;87.40;;;21.42;63.16;100528.47;9919281;29;98440;-86
2023/09/16 09:25:36;;;;;;;1.67;0.90;;;22.70;87.30;;;21.50;63.25;100519.19;9937139;29;96397;-88
2023/09/16 09:30:41;;;;;;;1.83;1.10;;;22.70;87.00;;;21.54;62.97;100515.81;9933924;29;96655;-88
2023/09/16 09:35:45;;;;;;;2.47;1.10;;;22.80;87.00;;;21.60;63.00;100512.16;9921407;29;96501;-87
2023/09/16 09:41:00;;;;;;;2.13;1.10;;;22.90;87.00;;;21.73;61.84;100523.81;9925671;29;96715;-90
2023/09/16 09:46:04;;;;;;;2.30;1.20;;;23.00;86.40;;;21.78;62.52;100513.13;9933809;29;96589;-86
2023/09/16 09:51:11;;;;;;;2.42;1.10;;;23.00;86.50;;;22.01;63.26;100509.59;9919462;29;96755;-87
2023/09/16 09:56:18;;;;;;;2.50;1.20;;;23.20;86.70;;;22.03;61.49;100513.72;9907013;29;97239;-88
2023/09/16 10:01:22;;;;;;;2.85;1.48;;;23.40;85.80;;;22.16;61.71;100507.28;9879738;29;98640;-88
2023/09/16 10:06:26;;;;;;;3.03;1.40;;;23.50;85.80;;;22.25;61.67;100510.44;9873338;29;96702;-87
2023/09/16 10:11:32;;;;;;;1.88;1.35;;;23.60;85.50;;;22.46;60.90;100499.00;9887292;29;96986;-88
2023/09/16 10:16:36;;;;;;;1.98;1.10;;;23.70;85.30;;;22.68;60.78;100486.47;9895608;29;97374;-88
2023/09/16 10:21:40;;;;;;;2.00;1.02;;;24.00;85.10;;;23.04;59.54;100492.59;9903992;29;96746;-87
2023/09/16 10:26:45;;;;;;;2.67;0.98;;;24.30;84.20;;;23.14;58.88;100486.53;9895365;29;96832;-89
2023/09/16 10:31:50;;;;;;;2.38;1.30;;;24.50;82.90;;;23.17;58.53;100486.88;9914859;29;97484;-88
2023/09/16 10:36:54;;;;;;;2.72;1.25;;;24.50;82.90;;;23.26;59.00;100478.31;9914700;29;97555;-88
2023/09/16 10:41:58;;;;;;;2.28;1.17;;;24.60;82.90;;;23.47;58.96;100469.47;9906551;29;96688;-89
2023/09/16 10:47:04;;;;;;;2.35;1.00;;;24.80;82.90;;;23.60;57.90;100468.31;9893735;29;96730;-90
2023/09/16 10:52:13;;;;;;;1.88;1.05;;;24.90;82.30;;;23.73;56.65;100465.31;9874366;29;96998;-90
2023/09/16 10:57:26;;;;;;;2.00;1.10;;;25.10;81.50;;;23.63;56.66;100471.41;9895341;29;98299;-89
2023/09/16 11:02:42;;;;;;;2.08;1.20;;;25.00;80.90;;;23.56;56.95;100467.97;9885349;29;97615;-90
2023/09/16 11:07:46;;;;;;;1.77;1.10;;;25.00;80.70;;;23.54;57.01;100463.88;9919572;29;96790;-90
2023/09/16 11:12:51;;;;;;;2.60;1.40;;;24.90;80.80;;;23.48;56.82;100455.66;9898542;29;98242;-91
2023/09/16 11:18:08;;;;;;;2.47;1.58;;;24.90;80.60;;;23.57;57.53;100447.94;9906009;29;97471;-90
2023/09/16 11:23:13;;;;;;;3.28;1.60;;;24.90;80.90;;;23.59;56.69;100445.81;9906891;29;98082;-89
2023/09/16 11:28:18;;;;;;;2.45;1.30;;;25.00;80.50;;;23.64;57.17;100435.06;9919576;29;98489;-90
2023/09/16 11:33:34;;;;;;;2.58;1.42;;;25.00;80.40;;;23.66;57.20;100430.22;9890230;29;96921;-89
2023/09/16 11:38:52;;;;;;;2.25;1.50;;;25.00;80.40;;;23.64;56.87;100426.94;9899548;29;96649;-92
2023/09/16 11:43:56;;;;;;;2.30;1.35;;;25.00;80.10;;;23.58;56.69;100414.31;9895950;29;96796;-90
2023/09/16 11:49:03;;;;;;;3.70;1.50;;;25.00;80.20;;;23.54;57.10;100423.19;9905946;29;96686;-90
2023/09/16 11:54:07;;;;;;;2.30;1.25;;;24.80;80.20;;;23.50;57.63;100420.97;9889395;29;96798;-90
2023/09/16 11:59:11;;;;;;;3.42;1.63;;;24.80;80.40;;;23.49;58.21;100418.50;9893560;29;98437;-90
2023/09/16 12:04:17;;;;;;;2.20;1.45;;;24.80;80.70;;;23.48;58.36;100419.59;9899447;29;97552;-92
2023/09/16 12:09:24;;;;;;;2.53;1.58;;;24.80;80.80;;;23.47;59.17;100415.25;9922668;29;96637;-90
2023/09/16 12:14:29;;;;;;;2.85;1.42;;;24.70;81.20;;;23.41;58.94;100402.66;9929072;29;97090;-91
2023/09/16 12:19:33;;;;;;;1.92;1.02;;;24.70;81.30;;;23.37;59.44;100404.22;9898067;29;96980;-91
2023/09/16 12:24:37;;;;;;;2.20;1.20;;;24.60;81.50;;;23.34;59.91;100405.56;9898103;29;96763;-91
2023/09/16 12:29:40;;;;;;;1.88;1.23;;;24.60;81.90;;;23.32;60.03;100404.13;9921596;29;96727;-91
2023/09/16 12:34:44;;;;;;;1.77;1.17;;;24.50;82.00;;;23.29;59.82;100391.91;9881697;29;96959;-92
2023/09/16 12:39:48;;;;;;;2.35;1.20;;;24.50;82.10;;;23.26;59.67;100392.38;9917774;29;97134;-90
2023/09/16 12:44:52;;;;;;;3.05;1.48;;;24.50;82.20;;;23.21;59.63;100387.72;9908205;29;97200;-91
2023/09/16 12:49:56;;;;;;;1.92;1.30;;;24.50;82.20;;;23.19;60.15;100397.16;9884647;29;96642;-90
2023/09/16 12:55:00;;;;;;;1.60;0.90;;;24.40;82.30;;;23.18;60.42;100381.97;9916470;29;97140;-90
2023/09/16 13:00:07;;;;;;;1.67;0.90;;;24.40;82.50;;;23.13;60.93;100388.13;9917771;29;96593;-90
2023/09/16 13:05:19;;;;;;;2.72;1.50;;;24.40;82.60;;;23.05;61.10;100393.94;9897670;29;96473;-89
2023/09/16 13:10:24;;;;;;;1.60;1.00;;;24.30;82.80;;;22.97;61.56;100378.09;9886204;29;98998;-88
2023/09/16 13:15:28;;;;;;;1.95;1.20;;;24.20;83.10;;;22.93;61.22;100390.50;9894093;29;96629;-91
2023/09/16 13:20:36;;;;;;;1.85;1.30;;;24.20;83.40;;;22.90;61.52;100380.94;9900012;29;96428;-90
2023/09/16 13:25:42;;;;;;;2.15;1.40;;;24.10;83.30;;;22.88;61.68;100382.28;9904729;29;96694;-90
2023/09/16 13:30:51;;;;;;;2.70;1.30;;;24.10;83.50;;;22.81;62.37;100378.88;9902419;29;97043;-90
2023/09/16 13:35:54;;;;;;;2.58;1.30;;;24.00;84.00;;;22.74;62.69;100384.44;9882710;29;97291;-91
2023/09/16 13:40:58;;;;;;;2.55;1.55;;;23.90;84.50;;;22.67;62.74;100379.19;9880964;29;97771;-91
2023/09/16 13:46:03;;;;;;;2.25;1.20;;;23.90;84.40;;;22.68;63.55;100388.94;9879083;29;96729;-88
2023/09/16 13:51:07;;;;;;;1.35;1.08;;;23.90;84.60;;;22.71;63.57;100385.72;9867004;29;98769;-91
2023/09/16 13:56:13;;;;;;;2.85;1.30;;;23.90;84.70;;;22.71;63.67;100385.72;9902850;29;96682;-90
2023/09/16 14:01:17;;;;;;;3.30;1.80;;;23.90;84.90;;;22.73;63.90;100381.97;9889126;29;96667;-90
2023/09/16 14:06:22;;;;;;;2.65;1.30;;;23.90;85.10;;;22.76;63.86;100379.59;9874752;29;96540;-90
2023/09/16 14:11:26;;;;;;;2.65;1.45;;;23.90;85.10;;;22.85;63.87;100382.72;9875350;29;98436;-87
2023/09/16 14:16:30;;;;;;;2.20;1.50;;;24.00;85.20;;;22.89;63.84;100379.31;9881175;29;96904;-94
2023/09/16 14:21:34;;;;;;;2.20;1.20;;;24.00;85.30;;;22.87;64.10;100369.78;9876383;29;97370;-91
2023/09/16 14:26:38;;;;;;;2.67;1.42;;;24.00;85.30;;;22.87;63.98;100381.44;9895430;29;98110;-93
2023/09/16 14:31:41;;;;;;;2.53;1.30;;;24.10;85.50;;;22.84;63.98;100381.91;9880391;29;96822;-86
2023/09/16 14:36:45;;;;;;;2.70;1.60;;;24.00;85.40;;;22.85;63.95;100386.28;9928139;29;96678;-90
2023/09/16 14:41:49;;;;;;;2.28;1.15;;;24.00;85.50;;;22.79;63.76;100389.09;9875027;29;96713;-92
2023/09/16 14:46:55;;;;;;;2.00;1.20;;;24.00;85.30;;;22.71;63.77;100388.44;9897928;29;96693;-92
2023/09/16 14:51:59;;;;;;;1.90;1.10;;;23.90;85.40;;;22.68;64.14;100383.53;9908327;29;97170;-89
2023/09/16 14:57:04;;;;;;;2.25;1.20;;;23.90;85.60;;;22.63;64.56;100382.59;9905384;29;97232;-93
2023/09/16 15:02:08;;;;;;;1.75;1.10;;;23.80;85.70;;;22.58;64.40;100375.22;9901058;29;97828;-93
2023/09/16 15:07:11;;;;;;;2.35;1.30;;;23.80;85.80;;;22.54;64.43;100384.88;9884933;29;96661;-88
2023/09/16 15:12:16;;;;;;;2.33;1.45;;;23.70;85.80;;;22.53;64.71;100385.94;9909599;29;96690;-87
2023/09/16 15:17:20;;;;;;;2.88;1.50;;;23.70;85.90;;;22.50;64.93;100389.16;9898045;29;96583;-95
2023/09/16 15:22:24;;;;;;;3.67;1.40;;;23.70;86.00;;;22.47;65.30;100370.66;9899330;29;96693;-96
2023/09/16 15:27:28;;;;;;;2.00;1.35;;;23.70;86.30;;;22.45;65.62;100375.50;9900405;29;97193;-87
2023/09/16 15:32:32;;;;;;;2.22;1.38;;;23.70;86.30;;;22.38;65.45;100375.66;9894680;29;96644;-92
2023/09/16 15:37:49;;;;;;;3.60;1.88;;;23.60;86.30;;;22.33;65.58;100366.59;9880792;29;96796;-94
2023/09/16 15:42:52;;;;;;;2.83;1.50;;;23.50;86.40;;;22.27;65.81;100371.09;9907226;29;98109;-88
2023/09/16 15:47:56;;;;;;;2.50;1.30;;;23.50;86.60;;;22.24;66.20;100368.03;9869796;29;97005;-89
2023/09/16 15:52:59;;;;;;;2.55;1.20;;;23.50;87.10;;;22.21;66.12;100368.53;9890543;29;96711;-92
2023/09/16 15:58:03;;;;;;;1.95;1.40;;;23.40;86.90;;;22.16;66.40;100356.53;9886043;29;98381;-91
2023/09/16 16:03:07;;;;;;;3.80;1.20;;;23.40;87.10;;;22.15;66.77;100363.00;9909421;29;98285;-96
2023/09/16 16:08:17;;;;;;;2.28;1.40;;;23.40;87.30;;;22.16;67.08;100358.41;9898785;29;96605;-95
2023/09/16 16:13:20;;;;;;;;;;;23.40;87.40;;;22.15;67.14;100362.19;9903614;29;96655;-94
2023/09/16 16:18:24;;;;;;;2.22;1.13;;;23.40;87.60;;;22.12;67.40;100360.78;9905574;29;96577;-90
2023/09/16 16:23:28;;;;;;;2.85;1.40;;;23.40;88.00;;;22.09;67.44;100353.16;9901717;29;98832;-93
2023/09/16 16:28:31;;;;;;;3.00;1.30;;;23.30;87.50;;;22.05;67.75;100353.81;9905923;29;96751;-93
2023/09/16 16:33:35;;;;;;;2.20;1.35;;;23.30;87.70;;;22.00;67.94;100351.84;9887564;29;96772;-92
2023/09/16 16:38:39;;;;;;;2.33;1.45;;;23.20;87.80;;;21.95;68.07;100345.50;9867511;29;97154;-93
2023/09/16 16:43:43;;;;;;;2.33;1.30;;;23.20;88.00;;;21.89;68.52;100347.25;9881720;29;96627;-94
2023/09/16 16:48:46;;;;;;;3.05;1.20;;;23.10;88.10;;;21.86;68.58;100334.22;9889168;29;96637;-96
2023/09/16 16:53:50;;;;;;;2.17;1.27;;;23.10;88.40;;;21.77;69.21;100338.34;9930140;29;96558;-96
2023/09/16 16:58:53;;;;;;;3.28;1.30;;;23.00;88.50;;;21.65;69.41;100327.56;9905832;29;97288;-92
2023/09/16 17:03:57;;;;;;;2.35;1.13;;;22.90;88.70;;;21.58;69.95;100333.09;9936739;29;98217;-96
2023/09/16 17:09:02;;;;;;;2.00;1.30;;;22.90;89.10;;;21.51;70.62;100336.97;9931021;29;96579;-96
2023/09/16 17:14:06;;;;;;;3.05;1.63;;;22.70;89.50;;;21.39;70.91;100345.09;9959475;29;95847;-96
2023/09/16 17:19:12;;;;;;;2.55;1.50;;;22.50;89.90;;;21.24;71.69;100342.03;9952322;29;95829;-96
2023/09/16 17:24:19;;;;;;;3.33;1.80;;;22.40;90.20;;;21.08;72.37;100346.22;9930312;29;95776;-96
2023/09/16 17:29:38;;;;;;;4.25;2.13;;;22.20;90.40;;;20.96;73.46;100348.91;9899803;29;97461;-89
2023/09/16 17:34:42;;;;;;;3.97;1.70;;;22.10;90.70;;;20.85;73.99;100361.34;9904328;29;96667;-89
2023/09/16 17:39:46;;;;;;;2.92;1.80;;;22.00;91.00;;;20.74;74.88;100361.31;9893040;29;98934;-89
2023/09/16 17:44:49;;;;;;;4.63;1.83;;;21.80;91.20;;;20.68;75.59;100356.81;9886409;29;96731;-90
2023/09/16 17:49:53;;;;;;;4.35;2.03;;;21.80;91.40;;;20.61;75.69;100364.19;9863004;29;97663;-89
2023/09/16 17:54:57;;;;;;;2.35;1.42;;;21.70;91.60;;;20.51;76.33;100370.13;9877663;29;96736;-89
2023/09/16 18:00:01;;;;;;;2.40;1.70;;;21.60;91.70;;;20.40;77.17;100371.72;9865738;29;97593;-90
2023/09/16 18:05:06;;;;;;;2.83;1.75;;;21.50;91.90;;;20.29;77.58;100367.91;9847404;29;98740;-90
2023/09/16 18:10:10;;;;;;;3.03;2.08;;;21.40;92.10;;;20.20;78.23;100379.25;9894643;29;96816;-90
2023/09/16 18:15:14;;;;;;;4.63;2.30;;;21.30;92.30;;;20.10;78.79;100382.50;9900418;29;98810;-90
2023/09/16 18:20:19;;;;;;;4.55;2.05;;;21.20;92.50;;;20.00;78.80;100385.69;9889215;29;98675;-90
2023/09/16 18:25:22;;;;;;;3.72;2.30;;;21.10;92.60;;;19.90;79.14;100390.78;9869748;29;96736;-90
2023/09/16 18:30:26;;;;;;;5.70;2.03;;;21.00;92.80;;;19.73;79.72;100395.13;9877610;29;96576;-89
2023/09/16 18:35:29;;;;;;;3.55;2.10;;;20.90;93.00;;;19.58;80.33;100395.47;9843824;29;96915;-89
2023/09/16 18:40:34;;;;;;;6.60;3.15;;;20.70;93.10;;;19.43;81.08;100393.13;9890213;29;96705;-89
2023/09/16 18:45:38;;;;;;;5.80;2.72;;;20.60;93.40;;;19.28;81.52;100408.78;9876157;29;96724;-89
2023/09/16 18:50:42;;;;;;;3.80;2.38;;;20.40;93.60;;;19.13;81.88;100398.34;9888839;29;97533;-89
2023/09/16 18:55:45;;;;;;;3.33;2.17;;;20.30;93.80;;;19.02;82.78;100398.22;9893257;29;96601;-89
2023/09/16 19:00:49;;;;;;;3.35;2.20;;;20.10;94.00;;;18.83;83.25;100395.44;9872094;29;97929;-89
2023/09/16 19:05:53;;;;;;;3.63;2.20;;;19.90;94.20;;;18.65;84.24;100397.97;9899284;29;96460;-90
2023/09/16 19:10:56;;;;;;;3.20;1.75;;;19.80;94.50;;;18.52;84.96;100392.69;9891282;29;96964;-89
2023/09/16 19:16:00;;;;;;;3.78;2.13;;;19.60;94.80;;;18.43;85.47;100402.88;9888104;29;96828;-89
2023/09/16 19:21:04;;;;;;;2.78;1.63;;;19.60;95.00;;;18.30;86.39;100405.63;9879000;29;97349;-89
2023/09/16 19:26:08;;;;;;;2.78;1.55;;;19.50;95.20;;;18.17;87.20;100409.16;9880111;29;97528;-89
2023/09/16 19:31:12;;;;;;;3.30;2.15;;;19.30;95.40;;;18.09;87.63;100415.63;9921921;29;96832;-89
2023/09/16 19:36:17;;;;;;;4.63;2.10;;;19.30;95.70;;;17.96;88.19;100418.34;9878754;29;96619;-89
2023/09/16 19:41:21;;;;;;;3.63;1.80;;;19.10;95.90;;;17.87;88.93;100423.13;9902069;29;96737;-89
2023/09/16 19:46:24;;;;;;;2.85;1.60;;;19.00;96.20;;;17.80;89.47;100432.22;9882107;29;96622;-89
2023/09/16 19:51:29;;;;;;;3.15;1.95;;;18.90;96.40;;;17.66;90.12;100428.72;9897071;29;96753;-89
2023/09/16 19:56:33;;;;;;;3.42;1.90;;;18.80;96.70;;;17.57;91.10;100429.94;9913780;29;96380;-89
2023/09/16 20:01:37;;;;;;;5.10;1.90;;;18.70;97.00;;;17.49;91.58;100431.00;9890134;29;96701;-90
2023/09/16 20:06:41;;;;;;;3.72;2.10;;;18.60;97.30;;;17.40;92.04;100434.94;9883552;29;96745;-89
2023/09/16 20:11:46;;;;;;;4.05;2.10;;;18.50;97.60;;;17.34;92.98;100439.28;9882671;29;96565;-89
2023/09/16 20:16:50;;;;;;;3.35;2.20;;;18.50;97.90;;;17.30;93.21;100431.81;9877791;29;96785;-89
2023/09/16 20:21:53;;;;;;;2.83;1.65;;;18.40;98.10;;;17.27;93.70;100438.44;9880080;29;98216;-89
2023/09/16 20:26:57;;;;;;;2.88;2.03;;;18.40;98.40;;;17.23;93.99;100431.81;9894746;29;96577;-89
2023/09/16 20:32:01;;;;;;;3.83;2.20;;;18.40;98.60;;;17.21;94.25;100433.88;9894313;29;96902;-89
2023/09/16 20:37:04;;;;;;;3.30;2.03;;;18.40;98.80;;;17.21;94.41;100444.59;9890430;29;99292;-89
2023/09/16 20:42:08;;;;;;;5.15;2.25;;;18.30;98.90;;;17.17;94.77;100443.38;9867865;29;96720;-89
2023/09/16 20:47:13;;;;;;;2.92;1.92;;;18.30;99.10;;;17.17;94.96;100454.13;9908125;29;96795;-89
2023/09/16 20:52:17;;;;;;;3.83;2.38;;;18.30;99.20;;;17.16;94.77;100447.09;9868894;29;98593;-89
2023/09/16 20:57:22;;;;;;;5.55;2.15;;;18.30;99.30;;;17.13;95.13;100445.63;9877883;29;97779;-89
2023/09/16 21:02:27;;;;;;;2.95;2.00;;;18.30;99.40;;;17.10;95.35;100448.75;9887791;29;98269;-89
2023/09/16 21:07:31;;;;;;;3.78;1.90;;;18.30;99.50;;;17.03;95.38;100447.06;9850291;29;97125;-88